ADDS METAR Data INFO
IDs: Format: Raw Decoded Include TAF

Data at: 1516 UTC 23 Oct 2017

KAQW 231452Z AUTO 09010G15KT 10SM BKN032 OVC038 16/10 A3028 RMK AO2 SLP255 T01610100 58014
KAQW 231407Z AUTO 08006KT 10SM OVC031 13/06 A3030 RMK AO2 T01330056
KAQW 231352Z AUTO 10009KT 10SM OVC029 12/06 A3030 RMK AO2 SLP262 T01220056
KAQW 231252Z AUTO 11011KT 10SM OVC025 11/04 A3032 RMK AO2 SLP271 T01060044
KAQW 231152Z AUTO 11010KT 10SM OVC026 08/04 A3032 RMK AO2 SLP271 T00830039 10100 20067 50000
KAQW 231111Z AUTO 09008KT 040V110 10SM BKN024 08/04 A3033 RMK AO2 T00780039
KAQW 231052Z AUTO 10007KT 10SM FEW027 07/04 A3033 RMK AO2 SLP273 T00720039
KAQW 230952Z AUTO 11005KT 10SM CLR 07/04 A3032 RMK AO2 SLP271 T00720044
KAQW 230852Z AUTO 11010KT 10SM CLR 08/04 A3032 RMK AO2 SLP270 T00830044 56007
KAQW 230752Z AUTO 13005KT 10SM CLR 08/04 A3032 RMK AO2 SLP269 T00830044
KAQW 230652Z AUTO 11004KT 10SM CLR 09/05 A3034 RMK AO2 SLP273 T00890050
KAQW 230552Z AUTO 15005KT 10SM CLR 10/06 A3035 RMK AO2 SLP275 T01000056 10167 20100 58006
KAQW 230452Z AUTO 10007KT 10SM CLR 11/06 A3036 RMK AO2 SLP281 T01060061 402610017
KAQW 230352Z AUTO 11009KT 070V140 10SM CLR 12/06 A3036 RMK AO2 SLP282 T01220061
KAQW 230252Z AUTO 11007KT 10SM CLR 12/07 A3037 RMK AO2 SLP284 T01220067 50008
KAQW 230152Z AUTO VRB03KT 10SM CLR 12/07 A3037 RMK AO2 SLP286 T01220067
KAQW 230052Z AUTO 21004KT 10SM CLR 11/07 A3036 RMK AO2 SLP285 T01060067
KAQW 222352Z AUTO 00000KT 10SM CLR 16/07 A3034 RMK AO2 SLP278 T01560072 10261 20156 53003
KAQW 222252Z AUTO 11008KT 10SM CLR 17/07 A3033 RMK AO2 SLP274 T01670067
KAQW 222152Z AUTO 11005KT 10SM CLR 18/07 A3033 RMK AO2 SLP272 T01830067
KAQW 222052Z AUTO VRB04KT 10SM CLR 21/07 A3033 RMK AO2 SLP273 T02110067 55002
KAQW 221952Z AUTO 28003KT 10SM CLR 23/04 A3033 RMK AO2 SLP272 T02330039
KAQW 221852Z AUTO 24007KT 10SM CLR 25/01 A3032 RMK AO2 SLP270 T02500006
KAQW 221752Z AUTO VRB05KT 10SM CLR 25/03 A3034 RMK AO2 SLP274 T02500033 10250 20022 56022
KAQW 221652Z AUTO 13005KT 10SM CLR 23/08 A3035 RMK AO2 SLP278 T02280078
KAQW 221552Z AUTO 13005KT 10SM CLR 20/07 A3038 RMK AO2 SLP289 T02000067
KAQW 221452Z AUTO 00000KT 10SM CLR 15/07 A3040 RMK AO2 SLP299 T01500072 58008
KAQW 221352Z AUTO 00000KT 10SM CLR 10/06 A3042 RMK AO2 SLP306 T01000061
KAQW 221252Z AUTO 00000KT 10SM CLR 06/04 A3043 RMK AO2 SLP311 T00610044
KAQW 221152Z AUTO 00000KT 10SM CLR 02/02 A3043 RMK AO2 SLP309 T00220017 10044 20017 52012
KAQW 221052Z AUTO 00000KT 10SM CLR 02/01 A3041 RMK AO2 SLP302 T00220011
KAQW 220952Z AUTO 00000KT 10SM CLR 03/02 A3041 RMK AO2 SLP300 T00280017
KAQW 220852Z AUTO 00000KT 10SM CLR 03/02 A3039 RMK AO2 SLP293 T00330022 53005
KAQW 220752Z AUTO 00000KT 10SM CLR 04/03 A3038 RMK AO2 SLP289 T00390028
KAQW 220652Z AUTO 00000KT 10SM CLR 04/03 A3038 RMK AO2 SLP288 T00440028
KAQW 220552Z AUTO 00000KT 10SM CLR 04/03 A3037 RMK AO2 SLP287 T00390033 10100 20033 51005
KAQW 220452Z AUTO 00000KT 10SM CLR 04/03 A3037 RMK AO2 SLP285 T00440033 402390006
KAQW 220352Z AUTO 00000KT 10SM CLR 06/04 A3036 RMK AO2 SLP284 T00560039